sensor_id;sensor_type;location;lat;lon;timestamp;temperature;humidity
15630;DHT22;7914;50.842;0.166;2022-12-07T00:01:07;1.30;99.90
15630;DHT22;7914;50.842;0.166;2022-12-07T00:03:33;1.30;99.90
15630;DHT22;7914;50.842;0.166;2022-12-07T00:06:00;1.20;99.90
15630;DHT22;7914;50.842;0.166;2022-12-07T00:08:26;1.20;99.90
15630;DHT22;7914;50.842;0.166;2022-12-07T00:10:52;1.30;99.90
15630;DHT22;7914;50.842;0.166;2022-12-07T00:13:17;1.30;99.90
15630;DHT22;7914;50.842;0.166;2022-12-07T00:15:44;1.30;99.90
15630;DHT22;7914;50.842;0.166;2022-12-07T00:18:10;1.30;99.90
15630;DHT22;7914;50.842;0.166;2022-12-07T00:20:35;1.30;99.90
15630;DHT22;7914;50.842;0.166;2022-12-07T00:23:01;1.40;99.90
15630;DHT22;7914;50.842;0.166;2022-12-07T00:25:27;1.40;99.90
15630;DHT22;7914;50.842;0.166;2022-12-07T00:27:53;1.50;99.90
15630;DHT22;7914;50.842;0.166;2022-12-07T00:30:22;1.50;99.90
15630;DHT22;7914;50.842;0.166;2022-12-07T00:32:48;1.60;99.90
15630;DHT22;7914;50.842;0.166;2022-12-07T00:35:14;1.60;99.90
15630;DHT22;7914;50.842;0.166;2022-12-07T00:37:39;1.60;99.90
15630;DHT22;7914;50.842;0.166;2022-12-07T00:40:06;1.60;99.90
15630;DHT22;7914;50.842;0.166;2022-12-07T00:42:32;1.70;99.90
15630;DHT22;7914;50.842;0.166;2022-12-07T00:44:58;1.70;99.90
15630;DHT22;7914;50.842;0.166;2022-12-07T00:47:24;1.70;99.90
15630;DHT22;7914;50.842;0.166;2022-12-07T00:49:49;1.70;99.90
15630;DHT22;7914;50.842;0.166;2022-12-07T00:52:15;1.70;99.90
15630;DHT22;7914;50.842;0.166;2022-12-07T00:54:40;1.70;99.90
15630;DHT22;7914;50.842;0.166;2022-12-07T00:57:06;1.70;99.90
15630;DHT22;7914;50.842;0.166;2022-12-07T00:59:32;1.70;99.90
15630;DHT22;7914;50.842;0.166;2022-12-07T01:01:57;1.60;99.90
15630;DHT22;7914;50.842;0.166;2022-12-07T01:04:23;1.60;99.90
15630;DHT22;7914;50.842;0.166;2022-12-07T01:06:48;1.60;99.90
15630;DHT22;7914;50.842;0.166;2022-12-07T01:09:14;1.60;99.90
15630;DHT22;7914;50.842;0.166;2022-12-07T01:11:40;1.50;99.90
15630;DHT22;7914;50.842;0.166;2022-12-07T01:14:06;1.50;99.90
15630;DHT22;7914;50.842;0.166;2022-12-07T01:16:32;1.40;99.90
15630;DHT22;7914;50.842;0.166;2022-12-07T01:19:00;1.40;99.90
15630;DHT22;7914;50.842;0.166;2022-12-07T01:21:31;1.40;99.90
15630;DHT22;7914;50.842;0.166;2022-12-07T01:24:03;1.30;99.90
15630;DHT22;7914;50.842;0.166;2022-12-07T01:26:29;1.30;99.90
15630;DHT22;7914;50.842;0.166;2022-12-07T01:28:55;1.30;99.90
15630;DHT22;7914;50.842;0.166;2022-12-07T01:31:23;1.20;99.90
15630;DHT22;7914;50.842;0.166;2022-12-07T01:33:51;1.30;99.90
15630;DHT22;7914;50.842;0.166;2022-12-07T01:36:23;1.20;99.90
15630;DHT22;7914;50.842;0.166;2022-12-07T01:38:51;1.30;99.90
15630;DHT22;7914;50.842;0.166;2022-12-07T01:41:19;1.30;99.90
15630;DHT22;7914;50.842;0.166;2022-12-07T01:46:32;1.40;99.90
15630;DHT22;7914;50.842;0.166;2022-12-07T01:48:58;1.40;99.90
15630;DHT22;7914;50.842;0.166;2022-12-07T01:51:24;1.30;99.90
15630;DHT22;7914;50.842;0.166;2022-12-07T01:53:50;1.30;99.90
15630;DHT22;7914;50.842;0.166;2022-12-07T01:56:19;1.30;99.90
15630;DHT22;7914;50.842;0.166;2022-12-07T01:58:46;1.30;99.90
15630;DHT22;7914;50.842;0.166;2022-12-07T02:01:13;1.30;99.90
15630;DHT22;7914;50.842;0.166;2022-12-07T02:03:41;1.30;99.90
15630;DHT22;7914;50.842;0.166;2022-12-07T02:06:08;1.20;99.90
15630;DHT22;7914;50.842;0.166;2022-12-07T02:08:35;1.60;99.90
15630;DHT22;7914;50.842;0.166;2022-12-07T02:11:05;1.20;99.90
15630;DHT22;7914;50.842;0.166;2022-12-07T02:13:33;1.30;99.90
15630;DHT22;7914;50.842;0.166;2022-12-07T02:29:21;1.20;99.90
15630;DHT22;7914;50.842;0.166;2022-12-07T02:32:05;1.10;99.90
15630;DHT22;7914;50.842;0.166;2022-12-07T02:34:52;1.10;99.90
15630;DHT22;7914;50.842;0.166;2022-12-07T02:37:32;1.10;99.90
15630;DHT22;7914;50.842;0.166;2022-12-07T02:42:57;1.20;99.90
15630;DHT22;7914;50.842;0.166;2022-12-07T02:45:25;1.30;99.90
15630;DHT22;7914;50.842;0.166;2022-12-07T02:47:56;1.40;99.90
15630;DHT22;7914;50.842;0.166;2022-12-07T02:50:24;1.50;99.90
15630;DHT22;7914;50.842;0.166;2022-12-07T02:52:50;1.60;99.90
15630;DHT22;7914;50.842;0.166;2022-12-07T02:55:19;1.60;99.90
15630;DHT22;7914;50.842;0.166;2022-12-07T02:58:13;1.60;99.90
15630;DHT22;7914;50.842;0.166;2022-12-07T03:00:54;1.60;99.90
15630;DHT22;7914;50.842;0.166;2022-12-07T03:03:23;1.50;99.90
15630;DHT22;7914;50.842;0.166;2022-12-07T03:11:44;1.40;99.90
15630;DHT22;7914;50.842;0.166;2022-12-07T03:14:25;1.40;99.90
15630;DHT22;7914;50.842;0.166;2022-12-07T03:17:05;1.30;99.90
15630;DHT22;7914;50.842;0.166;2022-12-07T03:19:34;1.20;99.90
15630;DHT22;7914;50.842;0.166;2022-12-07T03:22:11;1.20;99.90
15630;DHT22;7914;50.842;0.166;2022-12-07T03:24:43;1.10;99.90
15630;DHT22;7914;50.842;0.166;2022-12-07T03:27:18;1.10;99.90
15630;DHT22;7914;50.842;0.166;2022-12-07T03:30:49;1.10;99.90
15630;DHT22;7914;50.842;0.166;2022-12-07T03:33:13;1.10;99.90
15630;DHT22;7914;50.842;0.166;2022-12-07T03:35:49;1.10;99.90
15630;DHT22;7914;50.842;0.166;2022-12-07T03:41:05;1.20;99.90
15630;DHT22;7914;50.842;0.166;2022-12-07T03:43:33;1.30;99.90
15630;DHT22;7914;50.842;0.166;2022-12-07T03:49:01;1.10;99.90
15630;DHT22;7914;50.842;0.166;2022-12-07T03:51:44;1.10;99.90
15630;DHT22;7914;50.842;0.166;2022-12-07T03:54:16;1.10;99.90
15630;DHT22;7914;50.842;0.166;2022-12-07T03:56:44;1.00;99.90
15630;DHT22;7914;50.842;0.166;2022-12-07T03:59:11;1.00;99.90
15630;DHT22;7914;50.842;0.166;2022-12-07T04:01:38;1.00;99.90
15630;DHT22;7914;50.842;0.166;2022-12-07T04:04:04;1.10;99.90
15630;DHT22;7914;50.842;0.166;2022-12-07T04:06:29;1.10;99.90
15630;DHT22;7914;50.842;0.166;2022-12-07T04:08:55;1.00;99.90
15630;DHT22;7914;50.842;0.166;2022-12-07T04:11:21;1.00;99.90
15630;DHT22;7914;50.842;0.166;2022-12-07T04:13:46;1.00;99.90
15630;DHT22;7914;50.842;0.166;2022-12-07T04:16:30;1.00;99.90
15630;DHT22;7914;50.842;0.166;2022-12-07T04:18:56;1.00;99.90
15630;DHT22;7914;50.842;0.166;2022-12-07T04:21:22;1.00;99.90
15630;DHT22;7914;50.842;0.166;2022-12-07T04:23:47;1.00;99.90
15630;DHT22;7914;50.842;0.166;2022-12-07T04:26:13;1.10;99.90
15630;DHT22;7914;50.842;0.166;2022-12-07T04:28:39;1.10;99.90
15630;DHT22;7914;50.842;0.166;2022-12-07T04:31:04;1.20;99.90
15630;DHT22;7914;50.842;0.166;2022-12-07T04:33:30;1.30;99.90
15630;DHT22;7914;50.842;0.166;2022-12-07T04:35:56;1.40;99.90
15630;DHT22;7914;50.842;0.166;2022-12-07T04:38:21;1.50;99.90
15630;DHT22;7914;50.842;0.166;2022-12-07T04:40:47;1.50;99.90
15630;DHT22;7914;50.842;0.166;2022-12-07T04:43:13;1.50;99.90
15630;DHT22;7914;50.842;0.166;2022-12-07T04:45:38;1.50;99.90
15630;DHT22;7914;50.842;0.166;2022-12-07T04:48:04;1.50;99.90
15630;DHT22;7914;50.842;0.166;2022-12-07T04:50:30;1.50;99.90
15630;DHT22;7914;50.842;0.166;2022-12-07T04:52:55;1.50;99.90
15630;DHT22;7914;50.842;0.166;2022-12-07T04:55:21;1.50;99.90
15630;DHT22;7914;50.842;0.166;2022-12-07T04:57:47;1.50;99.90
15630;DHT22;7914;50.842;0.166;2022-12-07T05:00:12;1.50;99.90
15630;DHT22;7914;50.842;0.166;2022-12-07T05:02:38;1.50;99.90
15630;DHT22;7914;50.842;0.166;2022-12-07T05:05:04;1.40;99.90
15630;DHT22;7914;50.842;0.166;2022-12-07T05:07:30;1.40;99.90
15630;DHT22;7914;50.842;0.166;2022-12-07T05:09:55;1.50;99.90
15630;DHT22;7914;50.842;0.166;2022-12-07T05:12:21;1.50;99.90
15630;DHT22;7914;50.842;0.166;2022-12-07T05:14:47;1.50;99.90
15630;DHT22;7914;50.842;0.166;2022-12-07T05:17:12;1.50;99.90
15630;DHT22;7914;50.842;0.166;2022-12-07T05:19:38;1.60;99.90
15630;DHT22;7914;50.842;0.166;2022-12-07T05:22:03;1.60;99.90
15630;DHT22;7914;50.842;0.166;2022-12-07T05:24:29;1.70;99.90
15630;DHT22;7914;50.842;0.166;2022-12-07T05:26:55;1.70;99.90
15630;DHT22;7914;50.842;0.166;2022-12-07T05:29:20;1.80;99.90
15630;DHT22;7914;50.842;0.166;2022-12-07T05:31:46;1.80;99.90
15630;DHT22;7914;50.842;0.166;2022-12-07T05:34:12;1.90;99.90
15630;DHT22;7914;50.842;0.166;2022-12-07T05:36:38;1.90;99.90
15630;DHT22;7914;50.842;0.166;2022-12-07T05:39:04;1.90;99.90
15630;DHT22;7914;50.842;0.166;2022-12-07T05:41:29;1.90;99.90
15630;DHT22;7914;50.842;0.166;2022-12-07T05:44:14;1.90;99.90
15630;DHT22;7914;50.842;0.166;2022-12-07T05:46:40;2.00;99.90
15630;DHT22;7914;50.842;0.166;2022-12-07T05:49:06;2.00;99.90
15630;DHT22;7914;50.842;0.166;2022-12-07T05:51:31;2.00;99.90
15630;DHT22;7914;50.842;0.166;2022-12-07T05:53:57;1.90;99.90
15630;DHT22;7914;50.842;0.166;2022-12-07T05:56:23;1.90;99.90
15630;DHT22;7914;50.842;0.166;2022-12-07T05:58:48;1.90;99.90
15630;DHT22;7914;50.842;0.166;2022-12-07T06:01:33;1.90;99.90
15630;DHT22;7914;50.842;0.166;2022-12-07T06:03:58;1.90;99.90
15630;DHT22;7914;50.842;0.166;2022-12-07T06:06:24;1.80;99.90
15630;DHT22;7914;50.842;0.166;2022-12-07T06:08:50;1.80;99.90
15630;DHT22;7914;50.842;0.166;2022-12-07T06:11:15;1.80;99.90
15630;DHT22;7914;50.842;0.166;2022-12-07T06:14:00;1.80;99.90
15630;DHT22;7914;50.842;0.166;2022-12-07T06:16:25;1.80;99.90
15630;DHT22;7914;50.842;0.166;2022-12-07T06:18:51;1.80;99.90
15630;DHT22;7914;50.842;0.166;2022-12-07T06:21:16;1.80;99.90
15630;DHT22;7914;50.842;0.166;2022-12-07T06:23:42;1.80;99.90
15630;DHT22;7914;50.842;0.166;2022-12-07T06:26:08;1.90;99.90
15630;DHT22;7914;50.842;0.166;2022-12-07T06:28:33;1.90;99.90
15630;DHT22;7914;50.842;0.166;2022-12-07T06:31:00;2.00;99.90
15630;DHT22;7914;50.842;0.166;2022-12-07T06:33:27;2.00;99.90
15630;DHT22;7914;50.842;0.166;2022-12-07T06:35:53;2.10;99.90
15630;DHT22;7914;50.842;0.166;2022-12-07T06:38:19;2.10;99.90
15630;DHT22;7914;50.842;0.166;2022-12-07T06:40:45;2.10;99.90
15630;DHT22;7914;50.842;0.166;2022-12-07T06:43:10;2.20;99.90
15630;DHT22;7914;50.842;0.166;2022-12-07T06:45:36;2.20;99.90
15630;DHT22;7914;50.842;0.166;2022-12-07T06:48:02;2.20;99.90
15630;DHT22;7914;50.842;0.166;2022-12-07T06:50:28;2.20;99.90
15630;DHT22;7914;50.842;0.166;2022-12-07T06:52:53;2.20;99.90
15630;DHT22;7914;50.842;0.166;2022-12-07T06:55:19;3.70;99.90
15630;DHT22;7914;50.842;0.166;2022-12-07T06:57:45;2.20;99.90
15630;DHT22;7914;50.842;0.166;2022-12-07T07:00:11;2.20;99.90
15630;DHT22;7914;50.842;0.166;2022-12-07T07:02:36;2.20;99.90
15630;DHT22;7914;50.842;0.166;2022-12-07T07:05:02;2.20;99.90
15630;DHT22;7914;50.842;0.166;2022-12-07T07:07:28;2.20;99.90
15630;DHT22;7914;50.842;0.166;2022-12-07T07:09:54;2.20;99.90
15630;DHT22;7914;50.842;0.166;2022-12-07T07:12:20;2.10;99.90
15630;DHT22;7914;50.842;0.166;2022-12-07T07:14:46;2.10;99.90
15630;DHT22;7914;50.842;0.166;2022-12-07T07:17:11;2.10;99.90
15630;DHT22;7914;50.842;0.166;2022-12-07T07:19:37;2.10;99.90
15630;DHT22;7914;50.842;0.166;2022-12-07T07:22:03;2.20;99.90
15630;DHT22;7914;50.842;0.166;2022-12-07T07:24:29;2.20;99.90
15630;DHT22;7914;50.842;0.166;2022-12-07T07:26:55;2.20;99.90
15630;DHT22;7914;50.842;0.166;2022-12-07T07:29:21;2.30;99.90
15630;DHT22;7914;50.842;0.166;2022-12-07T07:31:47;2.30;99.90
15630;DHT22;7914;50.842;0.166;2022-12-07T07:34:13;2.40;99.90
15630;DHT22;7914;50.842;0.166;2022-12-07T07:36:38;2.40;99.90
15630;DHT22;7914;50.842;0.166;2022-12-07T07:39:04;2.40;99.90
15630;DHT22;7914;50.842;0.166;2022-12-07T07:41:30;2.50;99.90
15630;DHT22;7914;50.842;0.166;2022-12-07T07:43:57;2.50;99.90
15630;DHT22;7914;50.842;0.166;2022-12-07T07:46:22;2.50;99.90
15630;DHT22;7914;50.842;0.166;2022-12-07T07:48:48;2.50;99.90
15630;DHT22;7914;50.842;0.166;2022-12-07T07:51:14;2.50;99.90
15630;DHT22;7914;50.842;0.166;2022-12-07T07:53:39;2.50;99.90
15630;DHT22;7914;50.842;0.166;2022-12-07T07:56:05;2.50;99.90
15630;DHT22;7914;50.842;0.166;2022-12-07T07:58:31;2.50;99.90
15630;DHT22;7914;50.842;0.166;2022-12-07T08:00:56;2.60;99.90
15630;DHT22;7914;50.842;0.166;2022-12-07T08:03:22;2.50;99.90
15630;DHT22;7914;50.842;0.166;2022-12-07T08:05:48;2.70;99.90
15630;DHT22;7914;50.842;0.166;2022-12-07T08:08:13;2.50;99.90
15630;DHT22;7914;50.842;0.166;2022-12-07T08:10:39;2.50;99.90
15630;DHT22;7914;50.842;0.166;2022-12-07T08:13:05;2.50;99.90
15630;DHT22;7914;50.842;0.166;2022-12-07T08:15:38;2.60;99.90
15630;DHT22;7914;50.842;0.166;2022-12-07T08:18:04;2.60;99.90
15630;DHT22;7914;50.842;0.166;2022-12-07T08:20:31;2.50;99.90
15630;DHT22;7914;50.842;0.166;2022-12-07T08:22:58;2.60;99.90
15630;DHT22;7914;50.842;0.166;2022-12-07T08:25:24;2.60;99.90
15630;DHT22;7914;50.842;0.166;2022-12-07T08:27:50;2.70;99.90
15630;DHT22;7914;50.842;0.166;2022-12-07T08:30:16;2.70;99.90
15630;DHT22;7914;50.842;0.166;2022-12-07T08:32:43;2.70;99.90
15630;DHT22;7914;50.842;0.166;2022-12-07T08:35:09;2.70;99.90
15630;DHT22;7914;50.842;0.166;2022-12-07T08:37:35;2.70;99.90
15630;DHT22;7914;50.842;0.166;2022-12-07T08:40:01;2.70;99.90
15630;DHT22;7914;50.842;0.166;2022-12-07T08:42:27;2.80;99.90
15630;DHT22;7914;50.842;0.166;2022-12-07T08:44:56;2.80;99.90
15630;DHT22;7914;50.842;0.166;2022-12-07T08:47:23;2.80;99.90
15630;DHT22;7914;50.842;0.166;2022-12-07T08:49:51;2.80;99.90
15630;DHT22;7914;50.842;0.166;2022-12-07T08:52:17;2.80;99.90
15630;DHT22;7914;50.842;0.166;2022-12-07T08:54:43;2.90;99.90
15630;DHT22;7914;50.842;0.166;2022-12-07T08:57:10;2.80;99.90
15630;DHT22;7914;50.842;0.166;2022-12-07T08:59:37;2.90;99.90
15630;DHT22;7914;50.842;0.166;2022-12-07T09:02:04;2.90;99.90
15630;DHT22;7914;50.842;0.166;2022-12-07T09:04:30;3.00;99.90
15630;DHT22;7914;50.842;0.166;2022-12-07T09:06:55;3.00;99.90
15630;DHT22;7914;50.842;0.166;2022-12-07T09:09:21;3.00;99.90
15630;DHT22;7914;50.842;0.166;2022-12-07T09:11:47;3.10;99.90
15630;DHT22;7914;50.842;0.166;2022-12-07T09:14:13;3.10;99.90
15630;DHT22;7914;50.842;0.166;2022-12-07T09:16:39;3.10;99.90
15630;DHT22;7914;50.842;0.166;2022-12-07T09:19:05;3.10;99.90
15630;DHT22;7914;50.842;0.166;2022-12-07T09:21:30;3.20;99.90
15630;DHT22;7914;50.842;0.166;2022-12-07T09:23:56;3.10;99.90
15630;DHT22;7914;50.842;0.166;2022-12-07T09:26:22;3.10;99.90
15630;DHT22;7914;50.842;0.166;2022-12-07T09:28:47;3.20;99.90
15630;DHT22;7914;50.842;0.166;2022-12-07T09:31:13;3.20;99.90
15630;DHT22;7914;50.842;0.166;2022-12-07T09:33:39;3.30;99.90
15630;DHT22;7914;50.842;0.166;2022-12-07T09:36:05;3.30;99.90
15630;DHT22;7914;50.842;0.166;2022-12-07T09:38:31;3.40;99.90
15630;DHT22;7914;50.842;0.166;2022-12-07T09:41:04;3.40;99.90
15630;DHT22;7914;50.842;0.166;2022-12-07T09:43:30;3.50;99.90
15630;DHT22;7914;50.842;0.166;2022-12-07T09:45:56;3.60;99.90
15630;DHT22;7914;50.842;0.166;2022-12-07T09:48:36;3.70;99.90
15630;DHT22;7914;50.842;0.166;2022-12-07T09:51:15;3.80;99.90
15630;DHT22;7914;50.842;0.166;2022-12-07T09:53:42;4.00;99.90
15630;DHT22;7914;50.842;0.166;2022-12-07T09:56:13;4.00;99.90
15630;DHT22;7914;50.842;0.166;2022-12-07T09:58:39;4.00;99.90
15630;DHT22;7914;50.842;0.166;2022-12-07T10:01:14;4.00;99.90
15630;DHT22;7914;50.842;0.166;2022-12-07T10:03:54;4.00;99.90
15630;DHT22;7914;50.842;0.166;2022-12-07T10:06:20;4.00;99.90
15630;DHT22;7914;50.842;0.166;2022-12-07T10:08:46;4.00;99.90
15630;DHT22;7914;50.842;0.166;2022-12-07T10:11:12;4.00;99.90
15630;DHT22;7914;50.842;0.166;2022-12-07T10:13:48;4.00;99.90
15630;DHT22;7914;50.842;0.166;2022-12-07T10:16:43;4.00;99.90
15630;DHT22;7914;50.842;0.166;2022-12-07T10:22:14;4.20;99.90
15630;DHT22;7914;50.842;0.166;2022-12-07T10:24:47;4.10;99.90
15630;DHT22;7914;50.842;0.166;2022-12-07T10:27:22;4.10;99.90
15630;DHT22;7914;50.842;0.166;2022-12-07T10:29:52;4.10;99.90
15630;DHT22;7914;50.842;0.166;2022-12-07T10:34:45;4.10;99.90
15630;DHT22;7914;50.842;0.166;2022-12-07T10:39:51;4.20;99.90
15630;DHT22;7914;50.842;0.166;2022-12-07T10:44:43;4.20;99.90
15630;DHT22;7914;50.842;0.166;2022-12-07T10:47:29;4.30;99.90
15630;DHT22;7914;50.842;0.166;2022-12-07T10:50:27;4.20;99.90
15630;DHT22;7914;50.842;0.166;2022-12-07T10:53:11;4.30;99.90
15630;DHT22;7914;50.842;0.166;2022-12-07T11:01:20;4.50;99.90
15630;DHT22;7914;50.842;0.166;2022-12-07T11:04:13;4.70;99.90
15630;DHT22;7914;50.842;0.166;2022-12-07T11:13:01;5.10;99.90
15630;DHT22;7914;50.842;0.166;2022-12-07T11:21:30;5.40;99.90
15630;DHT22;7914;50.842;0.166;2022-12-07T11:24:01;5.50;99.90
15630;DHT22;7914;50.842;0.166;2022-12-07T11:26:50;5.50;99.90
15630;DHT22;7914;50.842;0.166;2022-12-07T11:29:25;5.40;99.90
15630;DHT22;7914;50.842;0.166;2022-12-07T11:32:15;5.60;99.90
15630;DHT22;7914;50.842;0.166;2022-12-07T11:35:01;5.50;99.90
15630;DHT22;7914;50.842;0.166;2022-12-07T11:37:32;5.60;99.90
15630;DHT22;7914;50.842;0.166;2022-12-07T11:40:33;5.80;99.90
15630;DHT22;7914;50.842;0.166;2022-12-07T11:43:13;5.70;99.90
15630;DHT22;7914;50.842;0.166;2022-12-07T11:45:42;5.90;99.90
15630;DHT22;7914;50.842;0.166;2022-12-07T11:48:21;5.90;99.90
15630;DHT22;7914;50.842;0.166;2022-12-07T11:50:51;5.80;99.90
15630;DHT22;7914;50.842;0.166;2022-12-07T11:53:44;5.70;99.90
15630;DHT22;7914;50.842;0.166;2022-12-07T11:56:13;5.60;99.90
15630;DHT22;7914;50.842;0.166;2022-12-07T11:59:02;5.50;99.90
15630;DHT22;7914;50.842;0.166;2022-12-07T12:06:37;5.50;99.90
15630;DHT22;7914;50.842;0.166;2022-12-07T12:09:31;5.50;99.90
15630;DHT22;7914;50.842;0.166;2022-12-07T12:23:20;5.30;99.90
15630;DHT22;7914;50.842;0.166;2022-12-07T12:25:56;5.20;99.90
15630;DHT22;7914;50.842;0.166;2022-12-07T12:28:39;5.20;99.90
15630;DHT22;7914;50.842;0.166;2022-12-07T12:33:49;5.10;99.90
15630;DHT22;7914;50.842;0.166;2022-12-07T12:47:03;5.20;99.90
15630;DHT22;7914;50.842;0.166;2022-12-07T12:49:38;5.20;99.90
15630;DHT22;7914;50.842;0.166;2022-12-07T12:54:38;5.20;99.90
15630;DHT22;7914;50.842;0.166;2022-12-07T12:57:06;5.20;99.90
15630;DHT22;7914;50.842;0.166;2022-12-07T12:59:36;5.30;99.90
15630;DHT22;7914;50.842;0.166;2022-12-07T13:02:29;5.20;99.90
15630;DHT22;7914;50.842;0.166;2022-12-07T13:04:58;5.20;99.90
15630;DHT22;7914;50.842;0.166;2022-12-07T13:15:41;5.30;99.90
15630;DHT22;7914;50.842;0.166;2022-12-07T13:23:29;5.10;99.90
15630;DHT22;7914;50.842;0.166;2022-12-07T13:28:44;5.00;99.90
15630;DHT22;7914;50.842;0.166;2022-12-07T13:33:55;5.10;99.90
15630;DHT22;7914;50.842;0.166;2022-12-07T13:36:27;5.10;99.90
15630;DHT22;7914;50.842;0.166;2022-12-07T13:38:58;5.10;99.90
15630;DHT22;7914;50.842;0.166;2022-12-07T13:41:26;5.00;99.90
15630;DHT22;7914;50.842;0.166;2022-12-07T13:44:11;5.10;99.90
15630;DHT22;7914;50.842;0.166;2022-12-07T13:46:46;5.00;99.90
15630;DHT22;7914;50.842;0.166;2022-12-07T13:51:44;4.80;99.90
15630;DHT22;7914;50.842;0.166;2022-12-07T13:54:12;4.80;99.90
15630;DHT22;7914;50.842;0.166;2022-12-07T13:56:38;4.70;99.90
15630;DHT22;7914;50.842;0.166;2022-12-07T13:59:14;4.70;99.90
15630;DHT22;7914;50.842;0.166;2022-12-07T14:01:41;4.60;99.90
15630;DHT22;7914;50.842;0.166;2022-12-07T14:04:37;4.60;99.90
15630;DHT22;7914;50.842;0.166;2022-12-07T14:07:24;4.60;99.90
15630;DHT22;7914;50.842;0.166;2022-12-07T14:10:04;4.50;99.90
15630;DHT22;7914;50.842;0.166;2022-12-07T14:12:32;4.50;99.90
15630;DHT22;7914;50.842;0.166;2022-12-07T14:14:59;4.50;99.90
15630;DHT22;7914;50.842;0.166;2022-12-07T14:17:27;4.50;99.90
15630;DHT22;7914;50.842;0.166;2022-12-07T14:20:00;4.50;99.90
15630;DHT22;7914;50.842;0.166;2022-12-07T14:22:33;4.40;99.90
15630;DHT22;7914;50.842;0.166;2022-12-07T14:27:52;4.40;99.90
15630;DHT22;7914;50.842;0.166;2022-12-07T14:30:21;4.30;99.90
15630;DHT22;7914;50.842;0.166;2022-12-07T14:32:50;4.30;99.90
15630;DHT22;7914;50.842;0.166;2022-12-07T14:35:17;4.30;99.90
15630;DHT22;7914;50.842;0.166;2022-12-07T14:37:46;4.20;99.90
15630;DHT22;7914;50.842;0.166;2022-12-07T14:40:20;4.20;99.90
15630;DHT22;7914;50.842;0.166;2022-12-07T14:42:48;4.20;99.90
15630;DHT22;7914;50.842;0.166;2022-12-07T14:45:18;4.20;99.90
15630;DHT22;7914;50.842;0.166;2022-12-07T14:47:45;4.10;99.90
15630;DHT22;7914;50.842;0.166;2022-12-07T14:50:16;4.10;99.90
15630;DHT22;7914;50.842;0.166;2022-12-07T14:53:10;4.10;99.90
15630;DHT22;7914;50.842;0.166;2022-12-07T14:55:36;4.10;99.90
15630;DHT22;7914;50.842;0.166;2022-12-07T14:58:02;4.00;99.90
15630;DHT22;7914;50.842;0.166;2022-12-07T15:00:29;4.00;99.90
15630;DHT22;7914;50.842;0.166;2022-12-07T15:02:55;4.00;99.90
15630;DHT22;7914;50.842;0.166;2022-12-07T15:05:21;3.90;99.90
15630;DHT22;7914;50.842;0.166;2022-12-07T15:07:47;3.90;99.90
15630;DHT22;7914;50.842;0.166;2022-12-07T15:10:19;3.90;99.90
15630;DHT22;7914;50.842;0.166;2022-12-07T15:12:45;3.80;99.90
15630;DHT22;7914;50.842;0.166;2022-12-07T15:15:11;3.90;99.90
15630;DHT22;7914;50.842;0.166;2022-12-07T15:17:37;3.80;99.90
15630;DHT22;7914;50.842;0.166;2022-12-07T15:20:03;3.70;99.90
15630;DHT22;7914;50.842;0.166;2022-12-07T15:22:29;3.70;99.90
15630;DHT22;7914;50.842;0.166;2022-12-07T15:24:57;3.70;99.90
15630;DHT22;7914;50.842;0.166;2022-12-07T15:27:22;3.70;99.90
15630;DHT22;7914;50.842;0.166;2022-12-07T15:29:48;3.60;99.90
15630;DHT22;7914;50.842;0.166;2022-12-07T15:32:14;3.60;99.90
15630;DHT22;7914;50.842;0.166;2022-12-07T15:34:39;3.60;99.90
15630;DHT22;7914;50.842;0.166;2022-12-07T15:37:05;3.60;99.90
15630;DHT22;7914;50.842;0.166;2022-12-07T15:39:31;3.50;99.90
15630;DHT22;7914;50.842;0.166;2022-12-07T15:41:57;3.50;99.90
15630;DHT22;7914;50.842;0.166;2022-12-07T15:44:23;3.50;99.90
15630;DHT22;7914;50.842;0.166;2022-12-07T15:47:07;3.40;99.90
15630;DHT22;7914;50.842;0.166;2022-12-07T15:49:33;3.30;99.90
15630;DHT22;7914;50.842;0.166;2022-12-07T15:51:58;3.30;99.90
15630;DHT22;7914;50.842;0.166;2022-12-07T15:54:26;3.20;99.90
15630;DHT22;7914;50.842;0.166;2022-12-07T15:56:52;3.50;99.90
15630;DHT22;7914;50.842;0.166;2022-12-07T15:59:18;3.10;99.90
15630;DHT22;7914;50.842;0.166;2022-12-07T16:01:44;3.10;99.90
15630;DHT22;7914;50.842;0.166;2022-12-07T16:04:10;3.10;99.90
15630;DHT22;7914;50.842;0.166;2022-12-07T16:06:35;3.10;99.90
15630;DHT22;7914;50.842;0.166;2022-12-07T16:09:02;3.00;99.90
15630;DHT22;7914;50.842;0.166;2022-12-07T16:11:28;3.00;99.90
15630;DHT22;7914;50.842;0.166;2022-12-07T16:13:53;2.90;99.90
15630;DHT22;7914;50.842;0.166;2022-12-07T16:16:19;2.80;99.90
15630;DHT22;7914;50.842;0.166;2022-12-07T16:18:48;2.80;99.90
15630;DHT22;7914;50.842;0.166;2022-12-07T16:21:14;2.80;99.90
15630;DHT22;7914;50.842;0.166;2022-12-07T16:23:40;2.80;99.90
15630;DHT22;7914;50.842;0.166;2022-12-07T16:26:07;2.80;99.90
15630;DHT22;7914;50.842;0.166;2022-12-07T16:28:34;2.70;99.90
15630;DHT22;7914;50.842;0.166;2022-12-07T16:31:12;2.70;99.90
15630;DHT22;7914;50.842;0.166;2022-12-07T16:33:39;2.60;99.90
15630;DHT22;7914;50.842;0.166;2022-12-07T16:36:06;2.60;99.90
15630;DHT22;7914;50.842;0.166;2022-12-07T16:38:33;2.60;99.90
15630;DHT22;7914;50.842;0.166;2022-12-07T16:40:59;2.60;99.90
15630;DHT22;7914;50.842;0.166;2022-12-07T16:43:25;2.50;99.90
15630;DHT22;7914;50.842;0.166;2022-12-07T16:45:50;2.40;99.90
15630;DHT22;7914;50.842;0.166;2022-12-07T16:48:17;2.40;99.90
15630;DHT22;7914;50.842;0.166;2022-12-07T16:50:44;2.30;99.90
15630;DHT22;7914;50.842;0.166;2022-12-07T16:53:11;2.30;99.90
15630;DHT22;7914;50.842;0.166;2022-12-07T16:55:42;2.30;99.90
15630;DHT22;7914;50.842;0.166;2022-12-07T16:58:10;2.20;99.90
15630;DHT22;7914;50.842;0.166;2022-12-07T17:00:36;2.20;99.90
15630;DHT22;7914;50.842;0.166;2022-12-07T17:03:03;2.20;99.90
15630;DHT22;7914;50.842;0.166;2022-12-07T17:05:29;2.10;99.90
15630;DHT22;7914;50.842;0.166;2022-12-07T17:07:55;2.10;99.90
15630;DHT22;7914;50.842;0.166;2022-12-07T17:10:21;2.00;99.90
15630;DHT22;7914;50.842;0.166;2022-12-07T17:12:47;2.00;99.90
15630;DHT22;7914;50.842;0.166;2022-12-07T17:15:13;2.00;99.90
15630;DHT22;7914;50.842;0.166;2022-12-07T17:17:45;1.90;99.90
15630;DHT22;7914;50.842;0.166;2022-12-07T17:20:12;1.90;99.90
15630;DHT22;7914;50.842;0.166;2022-12-07T17:22:39;1.90;99.90
15630;DHT22;7914;50.842;0.166;2022-12-07T17:25:05;1.90;99.90
15630;DHT22;7914;50.842;0.166;2022-12-07T17:27:31;1.90;99.90
15630;DHT22;7914;50.842;0.166;2022-12-07T17:29:57;1.80;99.90
15630;DHT22;7914;50.842;0.166;2022-12-07T17:32:22;1.70;99.90
15630;DHT22;7914;50.842;0.166;2022-12-07T17:34:48;1.70;99.90
15630;DHT22;7914;50.842;0.166;2022-12-07T17:37:14;1.70;99.90
15630;DHT22;7914;50.842;0.166;2022-12-07T17:39:39;1.70;99.90
15630;DHT22;7914;50.842;0.166;2022-12-07T17:42:05;1.70;99.90
15630;DHT22;7914;50.842;0.166;2022-12-07T17:44:49;1.90;99.90
15630;DHT22;7914;50.842;0.166;2022-12-07T17:47:15;1.60;99.90
15630;DHT22;7914;50.842;0.166;2022-12-07T17:49:43;1.60;99.90
15630;DHT22;7914;50.842;0.166;2022-12-07T17:52:11;1.50;99.90
15630;DHT22;7914;50.842;0.166;2022-12-07T17:54:55;1.50;99.90
15630;DHT22;7914;50.842;0.166;2022-12-07T17:57:21;1.50;99.90
15630;DHT22;7914;50.842;0.166;2022-12-07T17:59:47;1.50;99.90
15630;DHT22;7914;50.842;0.166;2022-12-07T18:02:12;1.50;99.90
15630;DHT22;7914;50.842;0.166;2022-12-07T18:04:38;1.50;99.90
15630;DHT22;7914;50.842;0.166;2022-12-07T18:07:06;1.50;99.90
15630;DHT22;7914;50.842;0.166;2022-12-07T18:09:32;1.90;99.90